Laird, Canada
Current Conditions -  °F | °C
As of 10:00 AM on Thursday 18 Dec 2014 (Local Time) from CYXE Reporting Station
Haze Haze  
Wind Chill: 15°   Ceiling: 300
Heat Index: 23°   Visibility: 4mi
Dew Point: 21°   Wind: 7mph
Humidity: 93%   Direction: 220°SW
Pressure: 29.91"   Gusts: NA
Location:  52.72°N, 106.58°W
Report Text: CYXE 181600Z 22006KT 4SM BR OVC003 M05/M06 A2991 RMK ST8 SLP163
Loading
Personal Weather Stations






























Interactive Weather Map New forecast layout! Learn more

10-Day Weather Forecast

Advertisements
Track Severe Weather on mobile